Time;durP1;ratioP1;P1;durP2;ratioP2;P2;SDS_P1;SDS_P2;PMS_P1;PMS_P2;Temp;Humidity;BMP_temperature;BMP_pressure;BME280_temperature;BME280_humidity;BME280_pressure;Samples;Min_cycle;Max_cycle;Signal;HPM_P1;HPM_P2
2023/06/29 00:00:57;;;;;;;9.85;8.25;;;17.80;99.90;;;;;;10320491;28;20218;-82
2023/06/29 00:06:18;;;;;;;9.65;7.57;;;17.70;99.90;;;;;;10321136;28;20232;-82
2023/06/29 00:11:39;;;;;;;10.02;8.20;;;17.80;99.90;;;;;;10320719;28;20492;-81
2023/06/29 00:17:01;;;;;;;9.52;8.45;;;17.70;99.90;;;;;;10346179;28;20213;-82
2023/06/29 00:22:22;;;;;;;8.73;7.85;;;17.60;99.90;;;;;;10360906;28;20276;-82
2023/06/29 00:27:44;;;;;;;10.60;7.63;;;17.70;99.90;;;;;;10359423;28;20387;-81
2023/06/29 00:33:05;;;;;;;10.18;8.25;;;17.60;99.90;;;;;;10346378;28;20201;-82
2023/06/29 00:38:28;;;;;;;13.23;9.63;;;17.60;99.90;;;;;;10346277;28;20503;-81
2023/06/29 00:43:49;;;;;;;10.35;8.13;;;17.60;99.90;;;;;;10344733;28;20268;-82
2023/06/29 00:49:12;;;;;;;10.30;9.00;;;17.60;99.90;;;;;;10318482;28;20201;-83
2023/06/29 00:54:35;;;;;;;11.45;9.35;;;17.60;99.90;;;;;;10305455;28;20264;-81
2023/06/29 01:00:00;;;;;;;15.23;9.40;;;17.60;99.90;;;;;;10318120;28;20204;-82
2023/06/29 01:05:22;;;;;;;10.75;8.55;;;17.50;99.90;;;;;;10304336;28;20252;-83
2023/06/29 01:10:48;;;;;;;11.35;8.55;;;17.50;99.90;;;;;;10318927;28;20384;-82
2023/06/29 01:16:14;;;;;;;11.98;8.73;;;17.50;99.90;;;;;;10340214;28;20209;-80
2023/06/29 01:21:48;;;;;;;12.52;9.00;;;17.40;99.90;;;;;;10361439;28;20214;-81
2023/06/29 01:27:14;;;;;;;13.80;8.65;;;17.40;99.90;;;;;;10358359;28;20275;-82
2023/06/29 01:32:35;;;;;;;9.27;6.63;;;17.40;99.90;;;;;;10357534;28;20204;-81
2023/06/29 01:38:01;;;;;;;11.23;6.82;;;17.40;99.90;;;;;;10356898;28;20212;-81
2023/06/29 01:43:24;;;;;;;13.52;7.40;;;17.50;99.90;;;;;;10360269;28;20301;-82
2023/06/29 01:48:46;;;;;;;14.18;7.97;;;17.50;99.90;;;;;;10302748;28;20204;-81
2023/06/29 01:54:08;;;;;;;10.15;6.75;;;17.50;99.90;;;;;;10316071;28;20210;-81
2023/06/29 01:59:30;;;;;;;8.70;6.95;;;17.50;99.90;;;;;;10315057;28;20249;-81
2023/06/29 02:04:51;;;;;;;13.95;7.05;;;17.50;99.90;;;;;;10315757;28;20241;-82
2023/06/29 02:10:12;;;;;;;11.20;7.07;;;17.40;99.90;;;;;;10301628;28;20202;-82
2023/06/29 02:15:33;;;;;;;8.77;6.05;;;17.40;99.90;;;;;;10347176;28;20370;-81
2023/06/29 02:20:59;;;;;;;7.95;5.78;;;17.40;99.90;;;;;;10355524;28;20197;-81
2023/06/29 02:26:21;;;;;;;9.35;6.30;;;17.30;99.90;;;;;;10354922;28;20264;-80
2023/06/29 02:31:42;;;;;;;8.02;5.35;;;17.30;99.90;;;;;;10369364;28;20480;-79
2023/06/29 02:37:04;;;;;;;10.10;5.75;;;17.30;99.90;;;;;;10354852;28;20202;-83
2023/06/29 02:42:27;;;;;;;5.57;4.50;;;17.30;99.90;;;;;;10351733;28;20632;-81
2023/06/29 02:47:48;;;;;;;8.35;5.47;;;17.20;99.90;;;;;;10301137;28;20209;-81
2023/06/29 02:53:13;;;;;;;12.00;6.07;;;17.20;99.90;;;;;;10314419;28;20201;-80
2023/06/29 02:58:34;;;;;;;8.25;5.38;;;17.10;99.90;;;;;;10300722;28;20440;-82
2023/06/29 03:03:59;;;;;;;8.52;5.40;;;17.10;99.90;;;;;;10301058;28;20241;-82
2023/06/29 03:09:20;;;;;;;7.97;5.88;;;17.10;99.90;;;;;;10315644;28;20381;-82
2023/06/29 03:14:41;;;;;;;8.73;5.68;;;17.00;99.90;;;;;;10352104;28;20227;-82
2023/06/29 03:20:03;;;;;;;9.43;4.90;;;17.00;99.90;;;;;;10368591;28;20488;-82
2023/06/29 03:25:24;;;;;;;8.25;4.95;;;17.00;99.90;;;;;;10366987;28;20236;-82
2023/06/29 03:30:46;;;;;;;8.80;4.75;;;17.00;99.90;;;;;;10368463;28;20220;-82
2023/06/29 03:36:11;;;;;;;10.30;4.35;;;17.00;99.90;;;;;;10367243;28;20380;-82
2023/06/29 03:41:32;;;;;;;9.48;4.75;;;17.10;99.90;;;;;;10367219;28;20503;-82
2023/06/29 03:46:53;;;;;;;8.02;4.38;;;17.10;99.90;;;;;;10366639;28;20212;-81
2023/06/29 03:52:14;;;;;;;6.20;4.15;;;17.10;99.90;;;;;;10366644;28;20267;-81
2023/06/29 03:57:36;;;;;;;7.72;4.22;;;17.10;99.90;;;;;;10366979;28;20539;-81
2023/06/29 04:02:57;;;;;;;7.22;4.45;;;17.20;99.90;;;;;;10352327;28;20244;-81
2023/06/29 04:08:18;;;;;;;5.47;3.85;;;17.20;99.90;;;;;;10366960;28;20189;-82
2023/06/29 04:13:40;;;;;;;8.00;3.78;;;17.30;99.90;;;;;;10366816;28;20216;-82
2023/06/29 04:19:01;;;;;;;6.28;3.55;;;17.30;99.90;;;;;;10367057;28;20276;-81
2023/06/29 04:24:23;;;;;;;6.45;3.70;;;17.30;99.90;;;;;;10360651;28;20232;-81
2023/06/29 04:29:44;;;;;;;5.38;3.40;;;17.40;99.90;;;;;;10359574;28;20496;-80
2023/06/29 04:35:06;;;;;;;5.50;3.38;;;17.50;99.90;;;;;;10359084;28;20401;-83
2023/06/29 04:40:27;;;;;;;4.93;3.03;;;17.50;99.90;;;;;;10359193;28;20221;-81
2023/06/29 04:45:49;;;;;;;7.05;3.90;;;17.70;99.90;;;;;;10343288;28;20428;-81
2023/06/29 04:51:12;;;;;;;8.20;3.20;;;17.80;99.90;;;;;;10318457;28;20489;-81
2023/06/29 04:56:34;;;;;;;4.30;2.72;;;17.90;99.90;;;;;;10318578;28;20250;-80
2023/06/29 05:01:55;;;;;;;5.20;3.28;;;18.10;99.90;;;;;;10318005;28;20218;-81
2023/06/29 05:07:17;;;;;;;6.63;2.85;;;18.30;99.90;;;;;;10317671;28;20242;-81
2023/06/29 05:12:38;;;;;;;6.82;2.80;;;18.50;99.90;;;;;;10326866;28;20190;-80
2023/06/29 05:17:59;;;;;;;5.50;2.70;;;18.40;99.90;;;;;;10319767;28;20205;-80
2023/06/29 05:23:20;;;;;;;3.83;2.90;;;18.30;99.90;;;;;;10357434;28;20225;-81
2023/06/29 05:28:41;;;;;;;5.50;3.75;;;18.40;99.90;;;;;;10343805;28;20228;-82
2023/06/29 05:34:07;;;;;;;5.03;3.17;;;18.50;99.90;;;;;;10357103;28;20197;-82
2023/06/29 05:39:28;;;;;;;5.82;2.88;;;18.60;99.90;;;;;;10370991;28;20201;-81
2023/06/29 05:44:49;;;;;;;5.60;2.90;;;18.90;99.90;;;;;;10335891;28;20230;-78
2023/06/29 05:50:10;;;;;;;6.22;3.22;;;19.10;99.90;;;;;;10302692;28;20229;-79
2023/06/29 05:55:32;;;;;;;6.25;2.70;;;19.50;99.90;;;;;;10316836;28;20273;-78
2023/06/29 06:00:53;;;;;;;8.02;2.92;;;19.70;99.90;;;;;;10302411;28;20202;-79
2023/06/29 06:06:15;;;;;;;3.95;2.70;;;19.90;1.00;;;;;;10316453;28;20232;-81
2023/06/29 06:11:36;;;;;;;5.78;3.25;;;20.10;99.90;;;;;;10316420;28;20314;-77
2023/06/29 06:16:57;;;;;;;5.18;2.78;;;20.30;99.90;;;;;;10349538;28;20237;-78
2023/06/29 06:22:18;;;;;;;6.25;2.50;;;20.40;1.00;;;;;;10356187;28;20213;-78
2023/06/29 06:27:39;;;;;;;4.20;2.92;;;20.60;1.00;;;;;;10355201;28;20190;-79
2023/06/29 06:33:01;;;;;;;4.55;2.72;;;20.70;1.00;;;;;;10355846;28;20198;-81
2023/06/29 06:38:22;;;;;;;6.47;2.65;;;20.80;99.90;;;;;;10368619;28;20533;-81
2023/06/29 06:43:44;;;;;;;3.50;2.30;;;20.80;99.90;;;;;;10341196;28;20241;-79
2023/06/29 06:49:05;;;;;;;5.65;2.40;;;20.90;99.90;;;;;;10314145;28;20269;-80
2023/06/29 06:54:26;;;;;;;6.82;2.35;;;21.10;99.90;;;;;;10314091;28;20220;-81
2023/06/29 06:59:48;;;;;;;4.68;2.38;;;21.20;99.90;;;;;;10314945;28;20190;-79
2023/06/29 07:05:10;;;;;;;2.40;1.83;;;21.20;2.20;;;;;;10314782;28;20265;-81
2023/06/29 07:10:31;;;;;;;2.60;1.88;;;21.30;1.00;;;;;;10300004;28;20397;-80
2023/06/29 07:15:52;;;;;;;5.35;2.13;;;21.50;1.00;;;;;;10348375;28;20205;-81
2023/06/29 07:21:13;;;;;;;2.80;1.92;;;21.50;1.00;;;;;;10354788;28;20186;-80
2023/06/29 07:26:37;;;;;;;6.05;2.88;;;21.60;1.00;;;;;;10354720;28;20221;-81
2023/06/29 07:31:59;;;;;;;3.50;2.30;;;;;;;;;;10299089;28;20292;-81
2023/06/29 07:37:22;;;;;;;3.30;2.00;;;23.40;1.00;;;;;;10362197;28;20242;-80
2023/06/29 07:42:43;;;;;;;2.28;1.95;;;23.80;1.00;;;;;;10349094;28;20230;-85
2023/06/29 07:48:05;;;;;;;2.55;1.88;;;24.40;99.90;;;;;;10334280;28;20232;-84
2023/06/29 07:53:26;;;;;;;5.10;2.00;;;24.80;99.90;;;;;;10347580;28;20217;-77
2023/06/29 07:58:47;;;;;;;3.20;1.90;;;25.20;99.90;;;;;;10353524;28;20208;-80
2023/06/29 08:04:09;;;;;;;2.97;2.10;;;25.40;99.90;;;;;;10356543;28;20317;-79
2023/06/29 08:09:30;;;;;;;2.90;1.90;;;25.70;99.90;;;;;;10354750;28;20201;-81
2023/06/29 08:14:52;;;;;;;4.00;1.92;;;26.10;99.90;;;;;;10354617;28;20206;-89
2023/06/29 08:20:13;;;;;;;2.35;1.92;;;26.50;99.90;;;;;;10354547;28;20206;-83
2023/06/29 08:25:34;;;;;;;6.10;2.25;;;26.60;99.90;;;;;;10354998;28;20227;-86
2023/06/29 08:30:56;;;;;;;2.80;1.80;;;27.10;99.90;;;;;;10341900;28;20201;-82
2023/06/29 08:36:18;;;;;;;2.17;1.80;;;;;;;;;;10328719;28;20237;-85
2023/06/29 08:41:39;;;;;;;7.22;2.08;;;;;;;;;;10329968;28;20257;-79
2023/06/29 08:47:02;;;;;;;46.58;3.92;;;27.90;1.00;;;;;;10340324;28;20260;-80
2023/06/29 08:52:26;;;;;;;2.20;1.63;;;28.00;1.00;;;;;;10353908;28;20210;-78
2023/06/29 08:58:13;;;;;;;5.55;1.88;;;28.10;1.00;;;;;;10344894;28;20229;-84
2023/06/29 09:03:35;;;;;;;3.15;1.85;;;28.30;1.00;;;;;;10330452;28;20244;-82
2023/06/29 09:08:56;;;;;;;2.75;1.95;;;28.50;99.90;;;;;;10330681;28;20264;-80
2023/06/29 09:14:17;;;;;;;3.58;1.45;;;28.50;99.90;;;;;;10338332;28;20409;-81
2023/06/29 09:19:42;;;;;;;2.35;1.48;;;28.50;99.90;;;;;;10352710;28;20296;-80
2023/06/29 09:25:05;;;;;;;2.97;2.10;;;28.60;99.90;;;;;;10348362;28;20282;-82
2023/06/29 09:30:38;;;;;;;2.50;1.40;;;28.60;99.90;;;;;;10350726;28;20202;-83
2023/06/29 09:36:08;;;;;;;3.75;1.70;;;29.10;99.90;;;;;;10307875;28;20214;-80
2023/06/29 09:41:29;;;;;;;2.80;1.70;;;29.40;99.90;;;;;;10342040;28;20232;-79
2023/06/29 09:46:52;;;;;;;2.83;1.60;;;29.60;1.00;;;;;;10349104;28;20486;-84
2023/06/29 09:52:17;;;;;;;4.13;1.60;;;29.90;99.90;;;;;;10337057;28;20420;-83
2023/06/29 09:57:42;;;;;;;1.65;1.45;;;29.90;99.90;;;;;;10338122;28;20217;-81
2023/06/29 10:03:04;;;;;;;9.27;2.10;;;30.00;99.90;;;;;;10365068;28;20348;-83
2023/06/29 10:08:27;;;;;;;7.28;1.67;;;29.90;99.90;;;;;;10345526;28;20204;-85
2023/06/29 10:13:51;;;;;;;1.58;1.45;;;29.90;99.90;;;;;;10346014;28;20205;-84
2023/06/29 10:19:18;;;;;;;2.95;1.30;;;30.00;99.90;;;;;;10336162;28;20472;-83
2023/06/29 10:24:47;;;;;;;15.57;2.42;;;30.40;99.90;;;;;;10341099;28;20236;-83
2023/06/29 10:30:10;;;;;;;1.80;1.48;;;30.10;99.90;;;;;;10341460;28;20273;-80
2023/06/29 10:35:32;;;;;;;6.07;1.70;;;30.10;99.90;;;;;;10305525;28;20245;-82
2023/06/29 10:40:53;;;;;;;3.63;1.58;;;30.30;99.90;;;;;;10303559;28;20285;-83
2023/06/29 10:46:17;;;;;;;2.25;1.45;;;30.40;99.90;;;;;;10363655;28;20556;-80
2023/06/29 10:51:50;;;;;;;5.03;2.05;;;30.40;99.90;;;;;;10348654;28;20221;-79
2023/06/29 10:57:11;;;;;;;3.28;1.58;;;30.50;99.90;;;;;;10346540;28;20239;-78
2023/06/29 11:02:33;;;;;;;2.58;1.70;;;30.50;99.90;;;;;;10335207;28;20198;-78
2023/06/29 11:07:56;;;;;;;1.55;1.45;;;30.50;99.90;;;;;;10348529;28;20202;-80
2023/06/29 11:13:21;;;;;;;2.90;1.67;;;30.40;99.90;;;;;;10343082;28;20209;-81
2023/06/29 11:18:49;;;;;;;3.85;1.33;;;30.50;99.90;;;;;;10348884;28;20548;-80
2023/06/29 11:24:11;;;;;;;3.88;1.50;;;30.10;99.90;;;;;;10331058;28;20218;-82
2023/06/29 11:29:32;;;;;;;1.75;1.40;;;29.80;99.90;;;;;;10331199;28;20194;-80
2023/06/29 11:35:01;;;;;;;2.22;1.40;;;29.50;99.90;;;;;;10369549;28;20213;-81
2023/06/29 11:40:24;;;;;;;3.65;1.23;;;29.50;99.90;;;;;;10353791;28;20288;-80
2023/06/29 11:45:45;;;;;;;2.20;1.33;;;30.10;99.90;;;;;;10357786;28;20221;-86
2023/06/29 11:51:07;;;;;;;2.97;1.73;;;29.60;99.90;;;;;;10352202;28;20193;-83
2023/06/29 11:56:36;;;;;;;2.05;1.30;;;30.00;99.90;;;;;;10345814;28;20333;-78
2023/06/29 12:01:59;;;;;;;4.18;1.40;;;29.70;99.90;;;;;;10355035;28;20377;-83
2023/06/29 12:07:35;;;;;;;2.38;1.30;;;29.20;99.90;;;;;;10353678;28;20286;-80
2023/06/29 12:12:58;;;;;;;6.20;1.50;;;29.20;99.90;;;;;;10349837;28;20253;-78
2023/06/29 12:18:19;;;;;;;2.63;1.27;;;29.50;99.90;;;;;;10348982;28;20221;-79
2023/06/29 12:23:41;;;;;;;4.78;1.33;;;29.60;99.90;;;;;;10347866;28;20233;-77
2023/06/29 12:29:02;;;;;;;4.30;1.40;;;29.90;99.90;;;;;;10355093;28;20194;-78
2023/06/29 12:34:25;;;;;;;3.28;1.80;;;29.90;99.90;;;;;;10348104;28;20435;-81
2023/06/29 12:39:48;;;;;;;3.55;1.50;;;29.70;99.90;;;;;;10337511;28;20224;-79
2023/06/29 12:45:10;;;;;;;6.68;2.08;;;28.90;99.90;;;;;;10354096;28;20288;-79
2023/06/29 12:50:31;;;;;;;9.45;2.50;;;28.20;99.90;;;;;;10353428;28;20387;-78
2023/06/29 12:55:53;;;;;;;2.70;1.42;;;28.00;99.90;;;;;;10345794;28;20211;-78
2023/06/29 13:01:15;;;;;;;5.55;1.48;;;28.70;99.90;;;;;;10349526;28;20221;-78
2023/06/29 13:06:36;;;;;;;6.95;1.50;;;29.10;99.90;;;;;;10347311;28;20245;-78
2023/06/29 13:12:01;;;;;;;10.68;2.30;;;29.30;99.90;;;;;;10349896;28;20384;-80
2023/06/29 13:17:23;;;;;;;4.38;1.70;;;29.20;99.90;;;;;;10365004;28;20583;-78
2023/06/29 13:22:44;;;;;;;8.07;3.20;;;29.40;99.90;;;;;;10359850;28;20280;-78
2023/06/29 13:28:05;;;;;;;4.55;1.60;;;29.50;99.90;;;;;;10349370;28;20515;-78
2023/06/29 13:33:27;;;;;;;3.92;1.80;;;29.50;99.90;;;;;;10321482;28;20209;-77
2023/06/29 13:38:48;;;;;;;2.75;1.73;;;29.60;99.90;;;;;;10348736;28;20201;-78
2023/06/29 13:44:11;;;;;;;2.33;1.60;;;29.50;99.90;;;;;;10329063;28;20419;-78
2023/06/29 13:49:33;;;;;;;5.30;1.98;;;29.40;99.90;;;;;;10347818;28;20201;-78
2023/06/29 13:54:54;;;;;;;12.80;1.90;;;29.20;99.90;;;;;;10349428;28;20590;-77
2023/06/29 14:00:16;;;;;;;2.17;1.55;;;29.00;99.90;;;;;;10350274;28;20244;-77
2023/06/29 14:05:37;;;;;;;2.20;1.27;;;28.80;99.90;;;;;;10347295;28;20259;-79
2023/06/29 14:10:59;;;;;;;1.67;1.35;;;28.40;99.90;;;;;;10363339;28;20278;-80
2023/06/29 14:16:20;;;;;;;3.05;1.35;;;28.30;99.90;;;;;;10335394;28;20201;-79
2023/06/29 14:21:43;;;;;;;2.30;1.20;;;28.30;99.90;;;;;;10344098;28;20240;-80
2023/06/29 14:27:05;;;;;;;4.03;1.25;;;28.00;99.90;;;;;;10349645;28;20220;-80
2023/06/29 14:32:26;;;;;;;3.30;1.38;;;27.80;99.90;;;;;;10347748;28;20197;-79
2023/06/29 14:37:47;;;;;;;4.22;1.75;;;27.90;99.90;;;;;;10349115;28;20208;-80
2023/06/29 14:43:08;;;;;;;5.85;1.10;;;28.00;99.90;;;;;;10348988;28;20190;-79
2023/06/29 14:48:30;;;;;;;6.65;2.28;;;27.80;99.90;;;;;;10345572;28;20685;-80
2023/06/29 14:53:51;;;;;;;5.50;3.45;;;27.80;99.90;;;;;;10362108;28;20224;-79
2023/06/29 14:59:12;;;;;;;4.93;1.40;;;27.80;99.90;;;;;;10355854;28;20223;-79
2023/06/29 15:04:34;;;;;;;4.50;1.50;;;27.60;99.90;;;;;;10337222;28;20242;-81
2023/06/29 15:09:55;;;;;;;2.35;1.45;;;27.60;99.90;;;;;;10316171;28;20198;-79
2023/06/29 15:15:17;;;;;;;2.63;1.15;;;27.50;99.90;;;;;;10316732;28;20228;-79
2023/06/29 15:20:38;;;;;;;2.22;1.58;;;27.40;99.90;;;;;;10300218;28;20202;-78
2023/06/29 15:26:00;;;;;;;5.68;1.98;;;27.20;99.90;;;;;;10311417;28;20289;-78
2023/06/29 15:31:21;;;;;;;3.55;1.50;;;27.10;99.90;;;;;;10344860;28;20441;-78
2023/06/29 15:36:43;;;;;;;1.70;1.42;;;27.00;99.90;;;;;;10353480;28;20225;-78
2023/06/29 15:42:04;;;;;;;4.13;1.45;;;26.90;99.90;;;;;;10353230;28;20209;-78
2023/06/29 15:47:27;;;;;;;3.80;1.30;;;26.70;99.90;;;;;;10325142;28;20262;-78
2023/06/29 15:52:48;;;;;;;1.65;1.30;;;26.60;99.90;;;;;;10313823;28;20198;-78
2023/06/29 15:58:09;;;;;;;3.85;1.60;;;26.50;99.90;;;;;;10319791;28;20281;-77
2023/06/29 16:03:31;;;;;;;2.60;2.00;;;26.20;99.90;;;;;;10350288;28;20241;-78
2023/06/29 16:08:52;;;;;;;3.78;1.65;;;26.20;99.90;;;;;;10353047;28;20202;-78
2023/06/29 16:14:14;;;;;;;5.03;1.48;;;26.10;99.90;;;;;;10362041;28;20202;-78
2023/06/29 16:19:35;;;;;;;2.60;1.58;;;26.00;99.90;;;;;;10356673;28;20197;-78
2023/06/29 16:24:56;;;;;;;3.35;1.30;;;25.90;99.90;;;;;;10359435;28;20235;-77
2023/06/29 16:30:18;;;;;;;2.30;1.05;;;26.00;99.90;;;;;;10341255;28;20201;-78
2023/06/29 16:35:39;;;;;;;2.35;1.38;;;25.90;99.90;;;;;;10358932;28;20206;-78
2023/06/29 16:41:01;;;;;;;1.13;0.80;;;25.70;99.90;;;;;;10358828;28;20224;-77
2023/06/29 16:46:22;;;;;;;1.15;1.05;;;25.60;99.90;;;;;;10355188;28;20272;-79
2023/06/29 16:51:43;;;;;;;1.42;1.20;;;25.50;99.90;;;;;;10372819;28;20232;-79
2023/06/29 16:57:05;;;;;;;5.25;1.30;;;25.40;99.90;;;;;;10359798;28;20220;-79
2023/06/29 17:02:27;;;;;;;2.13;1.17;;;25.40;99.90;;;;;;10356853;28;20202;-79
2023/06/29 17:07:48;;;;;;;1.17;0.90;;;25.30;99.90;;;;;;10359350;28;20499;-79
2023/06/29 17:13:10;;;;;;;1.25;1.10;;;;;;;;;;10358310;28;20190;-78
2023/06/29 17:18:36;;;;;;;2.15;0.85;;;25.30;99.90;;;;;;10352220;28;20567;-78
2023/06/29 17:24:00;;;;;;;2.13;1.20;;;25.10;99.90;;;;;;10357585;28;20214;-79
2023/06/29 17:29:21;;;;;;;1.30;1.10;;;24.90;99.90;;;;;;10321534;28;20571;-79
2023/06/29 17:34:42;;;;;;;2.40;1.10;;;24.80;99.90;;;;;;10323993;28;20209;-79
2023/06/29 17:40:04;;;;;;;3.03;1.10;;;;;;;;;;10330518;28;20241;-79
2023/06/29 17:45:26;;;;;;;2.65;1.27;;;;;;;;;;10321030;28;20324;-78
2023/06/29 17:50:51;;;;;;;2.40;1.20;;;;;;;;;;10357843;28;20190;-78
2023/06/29 17:56:15;;;;;;;2.60;0.90;;;;;;;;;;10356472;28;20205;-79
2023/06/29 18:01:36;;;;;;;1.85;1.40;;;;;;;;;;10352135;28;20533;-78
2023/06/29 18:06:59;;;;;;;2.35;1.08;;;;;;;;;;10355865;28;20272;-78
2023/06/29 18:12:20;;;;;;;5.82;1.70;;;24.20;1.00;;;;;;10353167;28;20217;-78
2023/06/29 18:17:42;;;;;;;2.70;1.10;;;;;;;;;;10331706;28;20248;-79
2023/06/29 18:23:03;;;;;;;4.25;1.42;;;23.70;99.90;;;;;;10301205;28;20201;-78
2023/06/29 18:28:24;;;;;;;2.72;1.27;;;23.80;99.90;;;;;;10326105;28;20586;-79
2023/06/29 18:33:45;;;;;;;1.33;1.20;;;23.70;99.90;;;;;;10354845;28;20201;-78
2023/06/29 18:39:06;;;;;;;2.30;1.27;;;23.60;99.90;;;;;;10354558;28;20206;-79
2023/06/29 18:44:28;;;;;;;4.05;1.30;;;23.40;1.00;;;;;;10363548;28;20299;-78
2023/06/29 18:49:50;;;;;;;2.67;1.63;;;23.30;1.00;;;;;;10354640;28;20209;-78
2023/06/29 18:55:12;;;;;;;1.52;1.40;;;;;;;;;;10355506;28;20221;-78
2023/06/29 19:00:35;;;;;;;2.65;1.63;;;;;;;;;;10324571;28;20276;-78
2023/06/29 19:05:57;;;;;;;1.95;1.52;;;;;;;;;;10353741;28;20248;-78
2023/06/29 19:11:18;;;;;;;3.17;1.52;;;;;;;;;;10340141;28;20247;-78
2023/06/29 19:16:41;;;;;;;2.45;1.85;;;23.00;1.00;;;;;;10335213;28;20209;-78
2023/06/29 19:22:03;;;;;;;2.65;2.05;;;22.90;17.00;;;;;;10353339;28;20197;-78
2023/06/29 19:27:25;;;;;;;2.42;1.80;;;;;;;;;;10354368;28;20385;-78
2023/06/29 19:32:47;;;;;;;1.85;1.58;;;;;;;;;;10348374;28;20273;-78
2023/06/29 19:38:09;;;;;;;2.55;1.65;;;;;;;;;;10353102;28;20204;-78
2023/06/29 19:43:30;;;;;;;2.88;1.70;;;;;;;;;;10354298;28;20418;-77
2023/06/29 19:48:52;;;;;;;3.03;1.60;;;;;;;;;;10345630;28;20202;-78
2023/06/29 19:54:14;;;;;;;2.50;1.60;;;;;;;;;;10357803;28;20224;-78
2023/06/29 19:59:36;;;;;;;2.22;1.60;;;;;;;;;;10361533;28;20198;-77
2023/06/29 20:04:57;;;;;;;3.42;2.38;;;;;;;;;;10355577;28;20249;-77
2023/06/29 20:10:19;;;;;;;5.03;3.08;;;;;;;;;;10361553;28;20464;-79
2023/06/29 20:15:41;;;;;;;6.45;3.50;;;;;;;;;;10361076;28;20272;-77
2023/06/29 20:21:03;;;;;;;4.80;3.03;;;;;;;;;;10326664;28;20202;-78
2023/06/29 20:26:25;;;;;;;4.53;3.03;;;;;;;;;;10349246;28;20797;-78
2023/06/29 20:31:47;;;;;;;4.45;2.42;;;;;;;;;;10340524;28;20205;-78
2023/06/29 20:37:08;;;;;;;5.50;3.35;;;21.40;1.00;;;;;;10359106;28;20210;-78
2023/06/29 20:42:29;;;;;;;6.40;4.45;;;21.00;1.00;;;;;;10337294;28;20292;-78
2023/06/29 20:47:51;;;;;;;10.82;5.10;;;20.80;1.00;;;;;;10326549;28;20236;-78
2023/06/29 20:53:14;;;;;;;7.97;5.10;;;;;;;;;;10319455;28;20194;-78
2023/06/29 20:58:36;;;;;;;7.82;4.28;;;20.70;40.00;;;;;;10331486;28;20230;-78
2023/06/29 21:03:58;;;;;;;8.35;4.18;;;20.70;99.90;;;;;;10353801;28;20241;-78
2023/06/29 21:09:19;;;;;;;7.30;4.32;;;20.60;1.00;;;;;;10317924;28;20199;-78
2023/06/29 21:14:41;;;;;;;6.60;4.30;;;;;;;;;;10318596;28;20199;-77
2023/06/29 21:20:04;;;;;;;7.53;4.85;;;;;;;;;;10330747;28;20243;-78
2023/06/29 21:25:26;;;;;;;7.93;4.75;;;;;;;;;;10343816;28;20229;-78
2023/06/29 21:30:47;;;;;;;7.28;4.18;;;;;;;;;;10338179;28;20378;-78
2023/06/29 21:36:09;;;;;;;7.30;4.28;;;;;;;;;;10317010;28;20464;-78
2023/06/29 21:41:31;;;;;;;5.72;4.57;;;;;;;;;;10317030;28;20191;-78
2023/06/29 21:46:52;;;;;;;5.55;3.85;;;20.00;1.00;;;;;;10316553;28;20225;-78
2023/06/29 21:52:13;;;;;;;7.25;4.10;;;20.10;1.00;;;;;;10320197;28;20266;-77
2023/06/29 21:57:35;;;;;;;6.57;4.43;;;19.90;1.00;;;;;;10322412;28;20212;-78
2023/06/29 22:02:56;;;;;;;4.95;4.20;;;19.80;99.90;;;;;;10342279;28;20238;-77
2023/06/29 22:08:18;;;;;;;8.27;4.53;;;;;;;;;;10363441;28;20528;-78
2023/06/29 22:13:43;;;;;;;8.15;4.03;;;;;;;;;;10316665;28;20287;-79
2023/06/29 22:19:04;;;;;;;5.60;3.85;;;;;;;;;;10314505;28;20249;-78
2023/06/29 22:24:26;;;;;;;6.10;4.05;;;19.30;99.90;;;;;;10345078;28;20218;-78
2023/06/29 22:29:49;;;;;;;6.50;4.57;;;;;;;;;;10355937;28;20212;-78
2023/06/29 22:35:10;;;;;;;5.13;3.78;;;19.60;99.90;;;;;;10355628;28;20263;-78
2023/06/29 22:40:32;;;;;;;3.85;3.13;;;;;;;;;;10327870;28;20501;-78
2023/06/29 22:45:53;;;;;;;5.93;3.28;;;19.00;1.00;;;;;;10315556;28;20237;-77
2023/06/29 22:51:15;;;;;;;6.47;2.85;;;19.00;1.00;;;;;;10314618;28;20270;-78
2023/06/29 22:56:36;;;;;;;4.00;2.28;;;18.90;1.00;;;;;;10313944;28;20238;-78
2023/06/29 23:01:58;;;;;;;4.93;2.50;;;18.90;99.90;;;;;;10353175;28;20197;-78
2023/06/29 23:07:21;;;;;;;3.53;2.15;;;18.80;99.90;;;;;;10349485;28;20292;-78
2023/06/29 23:12:45;;;;;;;2.97;2.33;;;18.90;99.90;;;;;;10353745;28;20209;-79
2023/06/29 23:18:06;;;;;;;4.03;2.63;;;19.00;99.90;;;;;;10353968;28;20232;-78
2023/06/29 23:23:29;;;;;;;3.20;2.70;;;19.00;1.00;;;;;;10350642;28;20201;-78
2023/06/29 23:28:51;;;;;;;2.97;2.50;;;19.00;99.90;;;;;;10358462;28;20226;-78
2023/06/29 23:34:13;;;;;;;4.35;2.88;;;18.90;1.00;;;;;;10362842;28;20198;-78
2023/06/29 23:39:36;;;;;;;3.50;2.53;;;18.70;1.00;;;;;;10332198;28;20216;-77
2023/06/29 23:44:57;;;;;;;3.17;2.72;;;18.60;1.00;;;;;;10321063;28;20222;-78
2023/06/29 23:50:18;;;;;;;3.40;2.78;;;18.60;99.90;;;;;;10321960;28;20198;-77
2023/06/29 23:55:40;;;;;;;3.60;2.72;;;;;;;;;;10323769;28;20389;-78
